sensor_id;sensor_type;location;lat;lon;timestamp;pressure;altitude;pressure_sealevel;temperature;humidity
73633;BME280;61927;50.080;14.418;2023-04-03T00:02:17;100223.63;;;4.19;64.81
73633;BME280;61927;50.080;14.418;2023-04-03T00:04:42;100228.19;;;4.11;65.83
73633;BME280;61927;50.080;14.418;2023-04-03T00:07:08;100221.13;;;4.13;65.96
73633;BME280;61927;50.080;14.418;2023-04-03T00:09:34;100209.56;;;4.20;65.72
73633;BME280;61927;50.080;14.418;2023-04-03T00:11:59;100211.31;;;4.21;65.97
73633;BME280;61927;50.080;14.418;2023-04-03T00:14:25;100216.66;;;4.16;65.29
73633;BME280;61927;50.080;14.418;2023-04-03T00:16:51;100221.09;;;4.14;65.73
73633;BME280;61927;50.080;14.418;2023-04-03T00:19:16;100228.94;;;4.16;65.63
73633;BME280;61927;50.080;14.418;2023-04-03T00:21:42;100229.81;;;4.16;65.62
73633;BME280;61927;50.080;14.418;2023-04-03T00:24:07;100227.19;;;4.16;65.62
73633;BME280;61927;50.080;14.418;2023-04-03T00:26:33;100227.22;;;4.15;65.56
73633;BME280;61927;50.080;14.418;2023-04-03T00:28:59;100235.09;;;4.15;65.60
73633;BME280;61927;50.080;14.418;2023-04-03T00:31:24;100221.16;;;4.11;65.85
73633;BME280;61927;50.080;14.418;2023-04-03T00:33:50;100227.28;;;4.12;66.33
73633;BME280;61927;50.080;14.418;2023-04-03T00:36:15;100225.41;;;4.17;65.96
73633;BME280;61927;50.080;14.418;2023-04-03T00:38:41;100233.44;;;4.11;65.35
73633;BME280;61927;50.080;14.418;2023-04-03T00:41:07;100228.41;;;4.02;65.83
73633;BME280;61927;50.080;14.418;2023-04-03T00:43:33;100234.41;;;4.07;65.98
73633;BME280;61927;50.080;14.418;2023-04-03T00:45:59;100236.34;;;3.99;65.44
73633;BME280;61927;50.080;14.418;2023-04-03T00:48:41;100238.78;;;4.06;65.85
73633;BME280;61927;50.080;14.418;2023-04-03T00:51:13;100235.50;;;3.97;65.61
73633;BME280;61927;50.080;14.418;2023-04-03T00:53:43;100241.59;;;3.99;65.08
73633;BME280;61927;50.080;14.418;2023-04-03T00:56:13;100239.81;;;3.99;65.54
73633;BME280;61927;50.080;14.418;2023-04-03T00:58:46;100235.44;;;4.00;64.91
73633;BME280;61927;50.080;14.418;2023-04-03T01:01:19;100233.78;;;3.96;64.37
73633;BME280;61927;50.080;14.418;2023-04-03T01:03:47;100237.41;;;3.90;64.62
73633;BME280;61927;50.080;14.418;2023-04-03T01:06:14;100244.41;;;3.89;64.56
73633;BME280;61927;50.080;14.418;2023-04-03T01:08:41;100249.84;;;3.82;63.79
73633;BME280;61927;50.080;14.418;2023-04-03T01:11:07;100243.75;;;3.80;63.67
73633;BME280;61927;50.080;14.418;2023-04-03T01:13:33;100255.25;;;3.74;63.18
73633;BME280;61927;50.080;14.418;2023-04-03T01:16:03;100247.50;;;3.68;63.08
73633;BME280;61927;50.080;14.418;2023-04-03T01:18:29;100264.91;;;3.72;62.63
73633;BME280;61927;50.080;14.418;2023-04-03T01:24:33;100271.97;;;3.70;60.76
73633;BME280;61927;50.080;14.418;2023-04-03T01:26:52;100266.22;;;3.51;61.27
73633;BME280;61927;50.080;14.418;2023-04-03T01:29:17;100277.66;;;3.49;61.25
73633;BME280;61927;50.080;14.418;2023-04-03T01:34:11;100280.75;;;3.24;60.80
73633;BME280;61927;50.080;14.418;2023-04-03T01:36:36;100273.78;;;3.23;59.99
73633;BME280;61927;50.080;14.418;2023-04-03T01:39:02;100272.81;;;3.28;59.67
73633;BME280;61927;50.080;14.418;2023-04-03T01:41:28;100285.38;;;3.10;58.38
73633;BME280;61927;50.080;14.418;2023-04-03T01:43:54;100286.66;;;2.88;57.47
73633;BME280;61927;50.080;14.418;2023-04-03T01:46:20;100291.91;;;2.86;57.93
73633;BME280;61927;50.080;14.418;2023-04-03T01:48:46;100291.72;;;2.99;57.42
73633;BME280;61927;50.080;14.418;2023-04-03T01:51:12;100301.44;;;2.92;57.13
73633;BME280;61927;50.080;14.418;2023-04-03T01:53:38;100300.69;;;2.84;57.43
73633;BME280;61927;50.080;14.418;2023-04-03T01:56:04;100310.38;;;2.80;56.90
73633;BME280;61927;50.080;14.418;2023-04-03T01:58:29;100312.06;;;2.83;57.01
73633;BME280;61927;50.080;14.418;2023-04-03T02:00:55;100310.31;;;2.83;56.69
73633;BME280;61927;50.080;14.418;2023-04-03T02:03:21;100305.22;;;2.74;57.19
73633;BME280;61927;50.080;14.418;2023-04-03T02:05:47;100306.16;;;2.72;56.99
73633;BME280;61927;50.080;14.418;2023-04-03T02:08:12;100321.09;;;2.65;57.17
73633;BME280;61927;50.080;14.418;2023-04-03T02:10:39;100315.78;;;2.70;57.71
73633;BME280;61927;50.080;14.418;2023-04-03T02:13:05;100322.81;;;2.66;57.59
73633;BME280;61927;50.080;14.418;2023-04-03T02:15:31;100320.19;;;2.68;56.84
73633;BME280;61927;50.080;14.418;2023-04-03T02:17:56;100332.66;;;2.52;57.57
73633;BME280;61927;50.080;14.418;2023-04-03T02:20:22;100329.38;;;2.38;57.34
73633;BME280;61927;50.080;14.418;2023-04-03T02:22:48;100319.19;;;2.18;58.15
73633;BME280;61927;50.080;14.418;2023-04-03T02:25:14;100324.41;;;2.18;58.35
73633;BME280;61927;50.080;14.418;2023-04-03T02:27:39;100320.13;;;2.14;57.51
73633;BME280;61927;50.080;14.418;2023-04-03T02:30:06;100330.63;;;2.11;58.34
73633;BME280;61927;50.080;14.418;2023-04-03T02:32:32;100332.41;;;2.09;57.81
73633;BME280;61927;50.080;14.418;2023-04-03T02:34:58;100327.38;;;1.93;58.89
73633;BME280;61927;50.080;14.418;2023-04-03T02:37:23;100329.97;;;1.93;58.69
73633;BME280;61927;50.080;14.418;2023-04-03T02:39:50;100330.91;;;1.89;58.88
73633;BME280;61927;50.080;14.418;2023-04-03T02:42:15;100340.53;;;1.86;58.82
73633;BME280;61927;50.080;14.418;2023-04-03T02:44:41;100346.75;;;1.79;59.52
73633;BME280;61927;50.080;14.418;2023-04-03T02:47:07;100346.72;;;1.80;59.24
73633;BME280;61927;50.080;14.418;2023-04-03T02:49:32;100348.53;;;1.75;58.74
73633;BME280;61927;50.080;14.418;2023-04-03T02:51:58;100355.59;;;1.69;58.90
73633;BME280;61927;50.080;14.418;2023-04-03T02:54:24;100360.09;;;1.56;59.86
73633;BME280;61927;50.080;14.418;2023-04-03T02:56:53;100361.84;;;1.55;59.42
73633;BME280;61927;50.080;14.418;2023-04-03T02:59:18;100357.44;;;1.57;59.69
73633;BME280;61927;50.080;14.418;2023-04-03T03:01:44;100358.22;;;1.67;58.66
73633;BME280;61927;50.080;14.418;2023-04-03T03:04:10;100360.16;;;1.50;58.88
73633;BME280;61927;50.080;14.418;2023-04-03T03:06:35;100365.44;;;1.45;59.64
73633;BME280;61927;50.080;14.418;2023-04-03T03:09:01;100368.91;;;1.46;59.80
73633;BME280;61927;50.080;14.418;2023-04-03T03:11:26;100362.09;;;1.31;59.81
73633;BME280;61927;50.080;14.418;2023-04-03T03:13:52;100369.13;;;1.24;60.68
73633;BME280;61927;50.080;14.418;2023-04-03T03:16:17;100369.19;;;1.17;60.08
73633;BME280;61927;50.080;14.418;2023-04-03T03:18:43;100365.75;;;1.10;60.54
73633;BME280;61927;50.080;14.418;2023-04-03T03:21:09;100370.91;;;1.19;60.57
73633;BME280;61927;50.080;14.418;2023-04-03T03:23:35;100375.38;;;1.07;60.50
73633;BME280;61927;50.080;14.418;2023-04-03T03:26:03;100375.38;;;1.07;60.68
73633;BME280;61927;50.080;14.418;2023-04-03T03:28:30;100377.25;;;0.92;60.52
73633;BME280;61927;50.080;14.418;2023-04-03T03:30:57;100373.84;;;0.80;61.32
73633;BME280;61927;50.080;14.418;2023-04-03T03:33:23;100379.88;;;0.88;61.51
73633;BME280;61927;50.080;14.418;2023-04-03T03:35:48;100384.22;;;0.90;61.47
73633;BME280;61927;50.080;14.418;2023-04-03T03:38:14;100378.16;;;0.85;60.71
73633;BME280;61927;50.080;14.418;2023-04-03T03:40:40;100379.91;;;0.83;60.98
73633;BME280;61927;50.080;14.418;2023-04-03T03:43:05;100388.59;;;0.90;61.29
73633;BME280;61927;50.080;14.418;2023-04-03T03:45:31;100385.19;;;0.79;61.15
73633;BME280;61927;50.080;14.418;2023-04-03T03:47:57;100389.53;;;0.77;61.79
73633;BME280;61927;50.080;14.418;2023-04-03T03:50:22;100386.94;;;0.78;61.04
73633;BME280;61927;50.080;14.418;2023-04-03T03:52:48;100393.03;;;0.77;61.27
73633;BME280;61927;50.080;14.418;2023-04-03T03:55:13;100392.19;;;0.71;61.60
73633;BME280;61927;50.080;14.418;2023-04-03T03:57:39;100400.88;;;0.76;61.85
73633;BME280;61927;50.080;14.418;2023-04-03T04:00:06;100401.72;;;0.78;61.27
73633;BME280;61927;50.080;14.418;2023-04-03T04:02:32;100394.94;;;0.49;61.98
73633;BME280;61927;50.080;14.418;2023-04-03T04:04:58;100400.13;;;0.55;62.47
73633;BME280;61927;50.080;14.418;2023-04-03T04:07:23;100400.09;;;0.63;62.44
73633;BME280;61927;50.080;14.418;2023-04-03T04:09:49;100400.06;;;0.69;62.32
73633;BME280;61927;50.080;14.418;2023-04-03T04:12:15;100393.97;;;0.66;61.58
73633;BME280;61927;50.080;14.418;2023-04-03T04:14:41;100400.94;;;0.65;61.45
73633;BME280;61927;50.080;14.418;2023-04-03T04:17:06;100406.13;;;0.70;61.35
73633;BME280;61927;50.080;14.418;2023-04-03T04:19:32;100408.81;;;0.62;61.93
73633;BME280;61927;50.080;14.418;2023-04-03T04:21:58;100406.25;;;0.53;61.32
73633;BME280;61927;50.080;14.418;2023-04-03T04:24:24;100409.78;;;0.44;61.89
73633;BME280;61927;50.080;14.418;2023-04-03T04:26:50;100421.16;;;0.32;61.72
73633;BME280;61927;50.080;14.418;2023-04-03T04:29:15;100418.59;;;0.20;63.19
73633;BME280;61927;50.080;14.418;2023-04-03T04:31:41;100425.56;;;0.20;63.36
73633;BME280;61927;50.080;14.418;2023-04-03T04:34:07;100422.06;;;0.22;62.73
73633;BME280;61927;50.080;14.418;2023-04-03T04:36:32;100423.78;;;0.29;62.73
73633;BME280;61927;50.080;14.418;2023-04-03T04:38:58;100432.47;;;0.31;62.42
73633;BME280;61927;50.080;14.418;2023-04-03T04:41:24;100440.31;;;0.31;62.47
73633;BME280;61927;50.080;14.418;2023-04-03T04:43:50;100438.63;;;0.14;62.72
73633;BME280;61927;50.080;14.418;2023-04-03T04:46:16;100438.66;;;0.09;63.24
73633;BME280;61927;50.080;14.418;2023-04-03T04:48:42;100445.63;;;0.06;63.18
73633;BME280;61927;50.080;14.418;2023-04-03T04:51:09;100437.78;;;0.09;63.75
73633;BME280;61927;50.080;14.418;2023-04-03T04:53:34;100446.44;;;0.17;62.96
73633;BME280;61927;50.080;14.418;2023-04-03T04:56:00;100445.59;;;0.13;62.79
73633;BME280;61927;50.080;14.418;2023-04-03T04:58:26;100444.75;;;0.07;63.21
73633;BME280;61927;50.080;14.418;2023-04-03T05:01:01;100439.50;;;0.11;63.66
73633;BME280;61927;50.080;14.418;2023-04-03T05:03:27;100449.94;;;0.17;63.41
73633;BME280;61927;50.080;14.418;2023-04-03T05:05:52;100449.03;;;0.21;62.84
73633;BME280;61927;50.080;14.418;2023-04-03T05:08:18;100443.81;;;0.23;62.97
73633;BME280;61927;50.080;14.418;2023-04-03T05:10:46;100457.75;;;0.17;63.17
73633;BME280;61927;50.080;14.418;2023-04-03T05:13:12;100448.25;;;0.04;63.79
73633;BME280;61927;50.080;14.418;2023-04-03T05:15:38;100450.81;;;0.15;63.06
73633;BME280;61927;50.080;14.418;2023-04-03T05:18:04;100455.19;;;0.04;63.39
73633;BME280;61927;50.080;14.418;2023-04-03T05:20:31;100462.19;;;-0.05;64.46
73633;BME280;61927;50.080;14.418;2023-04-03T05:22:57;100463.06;;;-0.12;64.44
73633;BME280;61927;50.080;14.418;2023-04-03T05:25:23;100467.41;;;-0.06;63.79
73633;BME280;61927;50.080;14.418;2023-04-03T05:27:49;100464.81;;;-0.09;64.44
73633;BME280;61927;50.080;14.418;2023-04-03T05:30:14;100476.13;;;-0.12;63.91
73633;BME280;61927;50.080;14.418;2023-04-03T05:32:40;100473.50;;;-0.18;64.54
73633;BME280;61927;50.080;14.418;2023-04-03T05:35:06;100488.28;;;-0.09;65.06
73633;BME280;61927;50.080;14.418;2023-04-03T05:37:33;100483.06;;;-0.17;64.75
73633;BME280;61927;50.080;14.418;2023-04-03T05:39:59;100481.34;;;-0.18;64.80
73633;BME280;61927;50.080;14.418;2023-04-03T05:42:25;100478.72;;;-0.13;64.90
73633;BME280;61927;50.080;14.418;2023-04-03T05:44:50;100478.72;;;-0.07;64.86
73633;BME280;61927;50.080;14.418;2023-04-03T05:47:17;100488.28;;;-0.08;64.79
73633;BME280;61927;50.080;14.418;2023-04-03T05:49:43;100477.88;;;-0.21;64.91
73633;BME280;61927;50.080;14.418;2023-04-03T05:52:23;100491.78;;;-0.18;65.01
73633;BME280;61927;50.080;14.418;2023-04-03T05:54:51;100495.25;;;-0.16;65.25
73633;BME280;61927;50.080;14.418;2023-04-03T05:57:16;100496.97;;;-0.10;65.26
73633;BME280;61927;50.080;14.418;2023-04-03T05:59:44;100490.00;;;-0.02;65.23
73633;BME280;61927;50.080;14.418;2023-04-03T06:02:12;100492.59;;;0.06;64.85
73633;BME280;61927;50.080;14.418;2023-04-03T06:04:38;100494.31;;;0.14;64.56
73633;BME280;61927;50.080;14.418;2023-04-03T06:07:04;100496.91;;;0.13;64.50
73633;BME280;61927;50.080;14.418;2023-04-03T06:09:30;100507.41;;;-0.03;64.66
73633;BME280;61927;50.080;14.418;2023-04-03T06:11:56;100498.72;;;-0.09;65.16
73633;BME280;61927;50.080;14.418;2023-04-03T06:14:25;100500.44;;;-0.01;65.03
73633;BME280;61927;50.080;14.418;2023-04-03T06:16:51;100516.94;;;0.15;64.23
73633;BME280;61927;50.080;14.418;2023-04-03T06:19:18;100503.88;;;0.20;64.70
73633;BME280;61927;50.080;14.418;2023-04-03T06:21:43;100519.50;;;0.29;64.47
73633;BME280;61927;50.080;14.418;2023-04-03T06:24:10;100514.22;;;0.44;63.91
73633;BME280;61927;50.080;14.418;2023-04-03T06:26:37;100517.63;;;0.58;63.28
73633;BME280;61927;50.080;14.418;2023-04-03T06:29:03;100507.13;;;0.71;62.78
73633;BME280;61927;50.080;14.418;2023-04-03T06:31:29;100517.56;;;0.74;61.81
73633;BME280;61927;50.080;14.418;2023-04-03T06:33:55;100525.44;;;0.64;61.85
73633;BME280;61927;50.080;14.418;2023-04-03T06:36:21;100536.75;;;0.65;61.84
73633;BME280;61927;50.080;14.418;2023-04-03T06:38:47;100532.44;;;0.61;61.85
73633;BME280;61927;50.080;14.418;2023-04-03T06:41:14;100528.94;;;0.62;62.31
73633;BME280;61927;50.080;14.418;2023-04-03T06:43:40;100548.06;;;0.73;61.41
73633;BME280;61927;50.080;14.418;2023-04-03T06:46:05;100551.50;;;0.77;60.98
73633;BME280;61927;50.080;14.418;2023-04-03T06:48:31;100538.53;;;0.61;61.27
73633;BME280;61927;50.080;14.418;2023-04-03T06:50:57;100540.25;;;0.62;62.01
73633;BME280;61927;50.080;14.418;2023-04-03T06:53:23;100544.63;;;0.62;61.62
73633;BME280;61927;50.080;14.418;2023-04-03T06:55:49;100547.22;;;0.63;61.87
73633;BME280;61927;50.080;14.418;2023-04-03T06:58:15;100545.47;;;0.62;61.52
73633;BME280;61927;50.080;14.418;2023-04-03T07:00:42;100550.66;;;0.75;61.90
73633;BME280;61927;50.080;14.418;2023-04-03T07:03:08;100544.44;;;0.99;61.59
73633;BME280;61927;50.080;14.418;2023-04-03T07:05:34;100553.03;;;1.19;60.76
73633;BME280;61927;50.080;14.418;2023-04-03T07:07:59;100558.16;;;1.34;60.64
73633;BME280;61927;50.080;14.418;2023-04-03T07:10:25;100547.88;;;1.05;60.26
73633;BME280;61927;50.080;14.418;2023-04-03T07:12:51;100552.28;;;1.00;60.43
73633;BME280;61927;50.080;14.418;2023-04-03T07:15:16;100550.53;;;0.99;60.50
73633;BME280;61927;50.080;14.418;2023-04-03T07:17:42;100556.53;;;1.16;59.73
73633;BME280;61927;50.080;14.418;2023-04-03T07:20:08;100550.38;;;1.25;60.27
73633;BME280;61927;50.080;14.418;2023-04-03T07:22:34;100547.81;;;1.17;59.65
73633;BME280;61927;50.080;14.418;2023-04-03T07:25:00;100553.06;;;1.13;59.85
73633;BME280;61927;50.080;14.418;2023-04-03T07:27:26;100550.38;;;1.25;59.30
73633;BME280;61927;50.080;14.418;2023-04-03T07:29:53;100557.28;;;1.35;59.53
73633;BME280;61927;50.080;14.418;2023-04-03T07:32:19;100565.13;;;1.35;58.68
73633;BME280;61927;50.080;14.418;2023-04-03T07:34:44;100552.94;;;1.31;58.96
73633;BME280;61927;50.080;14.418;2023-04-03T07:37:10;100552.03;;;1.40;58.80
73633;BME280;61927;50.080;14.418;2023-04-03T07:39:36;100558.88;;;1.54;59.20
73633;BME280;61927;50.080;14.418;2023-04-03T07:42:02;100569.50;;;1.35;58.96
73633;BME280;61927;50.080;14.418;2023-04-03T07:44:28;100556.53;;;1.16;59.42
73633;BME280;61927;50.080;14.418;2023-04-03T07:46:54;100554.78;;;1.20;59.41
73633;BME280;61927;50.080;14.418;2023-04-03T07:49:22;100557.38;;;1.20;59.29
73633;BME280;61927;50.080;14.418;2023-04-03T07:51:50;100559.13;;;1.19;58.75
73633;BME280;61927;50.080;14.418;2023-04-03T07:54:15;100557.41;;;1.18;59.16
73633;BME280;61927;50.080;14.418;2023-04-03T07:56:41;100555.53;;;1.37;58.82
73633;BME280;61927;50.080;14.418;2023-04-03T07:59:09;100562.47;;;1.40;58.20
73633;BME280;61927;50.080;14.418;2023-04-03T08:01:35;100560.69;;;1.45;57.69
73633;BME280;61927;50.080;14.418;2023-04-03T08:04:01;100565.00;;;1.53;57.88
73633;BME280;61927;50.080;14.418;2023-04-03T08:06:27;100558.84;;;1.60;56.92
73633;BME280;61927;50.080;14.418;2023-04-03T08:08:55;100556.06;;;1.79;57.40
73633;BME280;61927;50.080;14.418;2023-04-03T08:11:21;100563.66;;;2.08;56.18
73633;BME280;61927;50.080;14.418;2023-04-03T08:13:47;100567.91;;;2.21;54.91
73633;BME280;61927;50.080;14.418;2023-04-03T08:16:17;100561.59;;;2.40;54.40
73633;BME280;61927;50.080;14.418;2023-04-03T08:18:43;100565.69;;;2.63;54.18
73633;BME280;61927;50.080;14.418;2023-04-03T08:21:11;100564.00;;;2.58;53.09
73633;BME280;61927;50.080;14.418;2023-04-03T08:23:38;100560.88;;;2.24;54.57
73633;BME280;61927;50.080;14.418;2023-04-03T08:26:15;100562.78;;;2.09;55.49
73633;BME280;61927;50.080;14.418;2023-04-03T08:28:41;100559.31;;;2.07;54.42
73633;BME280;61927;50.080;14.418;2023-04-03T08:31:10;100567.38;;;1.82;54.71
73633;BME280;61927;50.080;14.418;2023-04-03T08:33:38;100569.25;;;1.68;55.55
73633;BME280;61927;50.080;14.418;2023-04-03T08:36:05;100557.84;;;1.75;55.77
73633;BME280;61927;50.080;14.418;2023-04-03T08:38:31;100556.06;;;1.82;55.84
73633;BME280;61927;50.080;14.418;2023-04-03T08:41:34;100556.03;;;1.85;55.25
73633;BME280;61927;50.080;14.418;2023-04-03T08:52:04;100560.00;;;2.24;56.13
73633;BME280;61927;50.080;14.418;2023-04-03T08:54:34;100565.34;;;2.13;55.46
73633;BME280;61927;50.080;14.418;2023-04-03T08:57:04;100568.16;;;1.92;56.52
73633;BME280;61927;50.080;14.418;2023-04-03T08:59:36;100561.25;;;1.86;54.90
73633;BME280;61927;50.080;14.418;2023-04-03T09:02:24;100554.22;;;1.90;54.90
73633;BME280;61927;50.080;14.418;2023-04-03T09:04:52;100557.44;;;2.18;55.23
73633;BME280;61927;50.080;14.418;2023-04-03T09:07:35;100552.75;;;2.49;55.05
73633;BME280;61927;50.080;14.418;2023-04-03T09:10:03;100551.91;;;2.45;54.44
73633;BME280;61927;50.080;14.418;2023-04-03T09:12:37;100554.50;;;2.50;53.94
73633;BME280;61927;50.080;14.418;2023-04-03T09:15:21;100551.91;;;2.47;50.37
73633;BME280;61927;50.080;14.418;2023-04-03T09:21:11;100570.38;;;2.33;51.17
73633;BME280;61927;50.080;14.418;2023-04-03T09:26:09;100564.97;;;2.50;51.62
73633;BME280;61927;50.080;14.418;2023-04-03T09:28:40;100556.09;;;2.62;51.20
73633;BME280;61927;50.080;14.418;2023-04-03T09:31:38;100580.47;;;2.68;51.50
73633;BME280;61927;50.080;14.418;2023-04-03T09:34:26;100579.38;;;2.86;51.65
73633;BME280;61927;50.080;14.418;2023-04-03T09:36:55;100582.19;;;2.71;50.93
73633;BME280;61927;50.080;14.418;2023-04-03T09:39:26;100582.31;;;2.62;51.31
73633;BME280;61927;50.080;14.418;2023-04-03T09:44:28;100575.16;;;2.76;51.02
73633;BME280;61927;50.080;14.418;2023-04-03T09:46:55;100580.22;;;2.88;50.39
73633;BME280;61927;50.080;14.418;2023-04-03T09:49:21;100578.38;;;2.98;50.63
73633;BME280;61927;50.080;14.418;2023-04-03T09:51:47;100574.84;;;3.00;49.96
73633;BME280;61927;50.080;14.418;2023-04-03T09:54:36;100578.72;;;2.70;50.46
73633;BME280;61927;50.080;14.418;2023-04-03T09:57:09;100575.09;;;2.79;51.08
73633;BME280;61927;50.080;14.418;2023-04-03T09:59:39;100572.97;;;3.08;49.55
73633;BME280;61927;50.080;14.418;2023-04-03T10:04:41;100578.63;;;3.41;48.17
73633;BME280;61927;50.080;14.418;2023-04-03T10:07:32;100575.41;;;3.22;48.38
73633;BME280;61927;50.080;14.418;2023-04-03T10:10:01;100577.28;;;3.14;48.21
73633;BME280;61927;50.080;14.418;2023-04-03T10:12:28;100574.56;;;3.20;48.73
73633;BME280;61927;50.080;14.418;2023-04-03T10:15:00;100575.47;;;3.17;48.26
73633;BME280;61927;50.080;14.418;2023-04-03T10:20:21;100568.88;;;3.50;47.05
73633;BME280;61927;50.080;14.418;2023-04-03T10:25:35;100569.88;;;3.96;46.08
73633;BME280;61927;50.080;14.418;2023-04-03T10:28:20;100568.19;;;3.93;45.51
73633;BME280;61927;50.080;14.418;2023-04-03T10:31:25;100570.28;;;3.71;45.65
73633;BME280;61927;50.080;14.418;2023-04-03T10:36:43;100568.19;;;3.93;45.12
73633;BME280;61927;50.080;14.418;2023-04-03T10:45:03;100554.91;;;4.02;45.03
73633;BME280;61927;50.080;14.418;2023-04-03T10:47:54;100565.25;;;4.11;43.87
73633;BME280;61927;50.080;14.418;2023-04-03T10:50:52;100560.75;;;4.18;44.03
73633;BME280;61927;50.080;14.418;2023-04-03T10:56:18;100555.09;;;4.39;45.53
73633;BME280;61927;50.080;14.418;2023-04-03T10:59:05;100547.25;;;4.36;44.57
73633;BME280;61927;50.080;14.418;2023-04-03T11:01:34;100551.31;;;4.06;44.59
73633;BME280;61927;50.080;14.418;2023-04-03T11:04:04;100542.34;;;4.18;44.35
73633;BME280;61927;50.080;14.418;2023-04-03T11:06:38;100536.03;;;4.28;44.11
73633;BME280;61927;50.080;14.418;2023-04-03T11:09:26;100543.63;;;4.43;44.24
73633;BME280;61927;50.080;14.418;2023-04-03T11:11:56;100534.56;;;4.58;43.26
73633;BME280;61927;50.080;14.418;2023-04-03T11:14:28;100535.13;;;4.74;43.86
73633;BME280;61927;50.080;14.418;2023-04-03T11:17:08;100534.50;;;5.03;42.90
73633;BME280;61927;50.080;14.418;2023-04-03T11:20:00;100534.59;;;4.98;41.89
73633;BME280;61927;50.080;14.418;2023-04-03T11:22:48;100538.19;;;4.94;42.57
73633;BME280;61927;50.080;14.418;2023-04-03T11:25:25;100545.81;;;4.65;43.19
73633;BME280;61927;50.080;14.418;2023-04-03T11:28:00;100537.81;;;4.26;43.86
73633;BME280;61927;50.080;14.418;2023-04-03T11:38:36;100531.63;;;4.30;43.24
73633;BME280;61927;50.080;14.418;2023-04-03T11:41:06;100533.25;;;4.36;43.98
73633;BME280;61927;50.080;14.418;2023-04-03T11:43:33;100531.72;;;4.24;42.89
73633;BME280;61927;50.080;14.418;2023-04-03T11:46:01;100526.16;;;4.41;43.04
73633;BME280;61927;50.080;14.418;2023-04-03T11:53:42;100512.25;;;4.77;41.03
73633;BME280;61927;50.080;14.418;2023-04-03T11:59:22;100500.66;;;4.88;42.33
73633;BME280;61927;50.080;14.418;2023-04-03T12:01:53;100509.66;;;5.16;40.49
73633;BME280;61927;50.080;14.418;2023-04-03T12:04:21;100504.91;;;4.93;40.33
73633;BME280;61927;50.080;14.418;2023-04-03T12:09:34;100498.91;;;4.86;40.87
73633;BME280;61927;50.080;14.418;2023-04-03T12:12:21;100498.78;;;4.93;41.61
73633;BME280;61927;50.080;14.418;2023-04-03T12:14:48;100494.22;;;5.01;40.75
73633;BME280;61927;50.080;14.418;2023-04-03T12:17:25;100499.91;;;5.19;40.67
73633;BME280;61927;50.080;14.418;2023-04-03T12:19:52;100494.34;;;5.33;39.77
73633;BME280;61927;50.080;14.418;2023-04-03T12:22:20;100487.78;;;5.14;39.41
73633;BME280;61927;50.080;14.418;2023-04-03T12:24:48;100492.78;;;5.25;39.34
73633;BME280;61927;50.080;14.418;2023-04-03T12:27:29;100484.66;;;5.34;39.83
73633;BME280;61927;50.080;14.418;2023-04-03T12:30:00;100487.09;;;5.43;38.62
73633;BME280;61927;50.080;14.418;2023-04-03T12:35:24;100485.69;;;5.64;37.89
73633;BME280;61927;50.080;14.418;2023-04-03T12:38:16;100480.81;;;5.82;38.35
73633;BME280;61927;50.080;14.418;2023-04-03T12:46:34;100486.03;;;5.13;40.79
73633;BME280;61927;50.080;14.418;2023-04-03T12:49:35;100494.59;;;5.23;40.45
73633;BME280;61927;50.080;14.418;2023-04-03T12:51:59;100481.06;;;5.38;39.91
73633;BME280;61927;50.080;14.418;2023-04-03T12:54:37;100482.06;;;5.32;40.14
73633;BME280;61927;50.080;14.418;2023-04-03T12:57:09;100478.78;;;5.23;39.92
73633;BME280;61927;50.080;14.418;2023-04-03T12:59:36;100494.09;;;5.05;39.78
73633;BME280;61927;50.080;14.418;2023-04-03T13:02:02;100487.19;;;5.01;40.33
73633;BME280;61927;50.080;14.418;2023-04-03T13:04:30;100477.22;;;5.15;40.94
73633;BME280;61927;50.080;14.418;2023-04-03T13:06:57;100479.56;;;5.28;39.78
73633;BME280;61927;50.080;14.418;2023-04-03T13:09:27;100481.75;;;5.46;39.16
73633;BME280;61927;50.080;14.418;2023-04-03T13:14:25;100471.06;;;5.86;39.04
73633;BME280;61927;50.080;14.418;2023-04-03T13:17:13;100475.59;;;5.81;37.45
73633;BME280;61927;50.080;14.418;2023-04-03T13:19:40;100476.09;;;5.61;37.72
73633;BME280;61927;50.080;14.418;2023-04-03T13:22:25;100469.25;;;5.88;37.69
73633;BME280;61927;50.080;14.418;2023-04-03T13:24:53;100475.50;;;5.84;36.43
73633;BME280;61927;50.080;14.418;2023-04-03T13:27:19;100470.94;;;5.92;36.88
73633;BME280;61927;50.080;14.418;2023-04-03T13:29:52;100465.72;;;5.91;36.59
73633;BME280;61927;50.080;14.418;2023-04-03T13:32:21;100475.44;;;5.87;37.36
73633;BME280;61927;50.080;14.418;2023-04-03T13:34:49;100468.03;;;5.67;39.94
73633;BME280;61927;50.080;14.418;2023-04-03T13:42:28;100464.28;;;5.06;40.86
73633;BME280;61927;50.080;14.418;2023-04-03T13:47:42;100468.38;;;4.79;40.38
73633;BME280;61927;50.080;14.418;2023-04-03T13:52:47;100469.25;;;4.80;40.49
73633;BME280;61927;50.080;14.418;2023-04-03T13:55:53;100459.78;;;5.11;39.98
73633;BME280;61927;50.080;14.418;2023-04-03T13:58:30;100460.22;;;5.29;40.33
73633;BME280;61927;50.080;14.418;2023-04-03T14:01:10;100456.25;;;5.48;39.44
73633;BME280;61927;50.080;14.418;2023-04-03T14:06:11;100455.16;;;5.57;37.44
73633;BME280;61927;50.080;14.418;2023-04-03T14:08:36;100460.84;;;5.74;38.40
73633;BME280;61927;50.080;14.418;2023-04-03T14:11:02;100451.75;;;5.86;37.40
73633;BME280;61927;50.080;14.418;2023-04-03T14:13:31;100446.53;;;5.50;37.60
73633;BME280;61927;50.080;14.418;2023-04-03T14:15:57;100457.63;;;5.27;37.59
73633;BME280;61927;50.080;14.418;2023-04-03T14:18:23;100449.09;;;5.17;38.50
73633;BME280;61927;50.080;14.418;2023-04-03T14:20:49;100459.69;;;5.14;38.65
73633;BME280;61927;50.080;14.418;2023-04-03T14:23:15;100455.25;;;5.16;38.30
73633;BME280;61927;50.080;14.418;2023-04-03T14:25:42;100456.91;;;5.21;37.87